sensor_id;sensor_type;location;lat;lon;timestamp;temperature;humidity
21306;DHT22;10812;51.838;5.838;2022-12-07T00:01:19;3.70;99.90
21306;DHT22;10812;51.838;5.838;2022-12-07T00:03:49;3.60;99.90
21306;DHT22;10812;51.838;5.838;2022-12-07T00:06:18;3.60;99.90
21306;DHT22;10812;51.838;5.838;2022-12-07T00:08:47;3.50;99.90
21306;DHT22;10812;51.838;5.838;2022-12-07T00:11:17;3.50;99.90
21306;DHT22;10812;51.838;5.838;2022-12-07T00:13:51;3.50;99.90
21306;DHT22;10812;51.838;5.838;2022-12-07T00:16:21;3.40;99.90
21306;DHT22;10812;51.838;5.838;2022-12-07T00:18:50;3.40;99.90
21306;DHT22;10812;51.838;5.838;2022-12-07T00:21:20;3.30;99.90
21306;DHT22;10812;51.838;5.838;2022-12-07T00:23:50;3.20;99.90
21306;DHT22;10812;51.838;5.838;2022-12-07T00:26:19;3.20;99.90
21306;DHT22;10812;51.838;5.838;2022-12-07T00:28:50;3.30;99.90
21306;DHT22;10812;51.838;5.838;2022-12-07T00:31:21;3.20;99.90
21306;DHT22;10812;51.838;5.838;2022-12-07T00:33:50;3.30;99.90
21306;DHT22;10812;51.838;5.838;2022-12-07T00:36:20;3.30;99.90
21306;DHT22;10812;51.838;5.838;2022-12-07T00:38:52;3.20;99.90
21306;DHT22;10812;51.838;5.838;2022-12-07T00:41:23;3.10;99.90
21306;DHT22;10812;51.838;5.838;2022-12-07T00:43:53;3.10;99.90
21306;DHT22;10812;51.838;5.838;2022-12-07T00:46:22;3.00;99.90
21306;DHT22;10812;51.838;5.838;2022-12-07T00:48:51;2.90;99.90
21306;DHT22;10812;51.838;5.838;2022-12-07T00:51:21;2.80;99.90
21306;DHT22;10812;51.838;5.838;2022-12-07T00:53:50;2.70;99.90
21306;DHT22;10812;51.838;5.838;2022-12-07T00:56:21;2.70;99.90
21306;DHT22;10812;51.838;5.838;2022-12-07T00:58:52;2.60;99.90
21306;DHT22;10812;51.838;5.838;2022-12-07T01:01:20;2.60;99.90
21306;DHT22;10812;51.838;5.838;2022-12-07T01:03:49;2.60;99.90
21306;DHT22;10812;51.838;5.838;2022-12-07T01:06:19;2.60;99.90
21306;DHT22;10812;51.838;5.838;2022-12-07T01:08:48;2.50;99.90
21306;DHT22;10812;51.838;5.838;2022-12-07T01:11:18;2.50;99.90
21306;DHT22;10812;51.838;5.838;2022-12-07T01:13:48;2.50;99.90
21306;DHT22;10812;51.838;5.838;2022-12-07T01:16:19;2.50;99.90
21306;DHT22;10812;51.838;5.838;2022-12-07T01:18:49;2.50;99.90
21306;DHT22;10812;51.838;5.838;2022-12-07T01:21:19;2.40;99.90
21306;DHT22;10812;51.838;5.838;2022-12-07T01:23:48;2.40;99.90
21306;DHT22;10812;51.838;5.838;2022-12-07T01:26:18;2.30;99.90
21306;DHT22;10812;51.838;5.838;2022-12-07T01:28:47;2.30;99.90
21306;DHT22;10812;51.838;5.838;2022-12-07T01:31:18;2.30;99.90
21306;DHT22;10812;51.838;5.838;2022-12-07T01:33:48;2.30;99.90
21306;DHT22;10812;51.838;5.838;2022-12-07T01:36:21;2.20;99.90
21306;DHT22;10812;51.838;5.838;2022-12-07T01:38:51;2.20;99.90
21306;DHT22;10812;51.838;5.838;2022-12-07T01:52:55;2.20;99.90
21306;DHT22;10812;51.838;5.838;2022-12-07T01:55:25;2.10;99.90
21306;DHT22;10812;51.838;5.838;2022-12-07T01:57:54;2.10;99.90
21306;DHT22;10812;51.838;5.838;2022-12-07T02:00:23;2.10;99.90
21306;DHT22;10812;51.838;5.838;2022-12-07T02:02:55;2.00;99.90
21306;DHT22;10812;51.838;5.838;2022-12-07T02:05:25;2.00;99.90
21306;DHT22;10812;51.838;5.838;2022-12-07T02:07:56;2.00;99.90
21306;DHT22;10812;51.838;5.838;2022-12-07T02:10:27;2.10;99.90
21306;DHT22;10812;51.838;5.838;2022-12-07T02:12:58;2.20;99.90
21306;DHT22;10812;51.838;5.838;2022-12-07T02:15:35;2.20;99.90
21306;DHT22;10812;51.838;5.838;2022-12-07T02:18:11;2.20;99.90
21306;DHT22;10812;51.838;5.838;2022-12-07T02:20:43;2.00;99.90
21306;DHT22;10812;51.838;5.838;2022-12-07T02:23:50;2.00;99.90
21306;DHT22;10812;51.838;5.838;2022-12-07T02:29:41;2.00;99.90
21306;DHT22;10812;51.838;5.838;2022-12-07T02:32:16;2.00;99.90
21306;DHT22;10812;51.838;5.838;2022-12-07T02:34:49;1.90;99.90
21306;DHT22;10812;51.838;5.838;2022-12-07T02:37:25;1.90;99.90
21306;DHT22;10812;51.838;5.838;2022-12-07T02:39:59;1.90;99.90
21306;DHT22;10812;51.838;5.838;2022-12-07T02:42:32;1.90;99.90
21306;DHT22;10812;51.838;5.838;2022-12-07T02:45:04;1.80;99.90
21306;DHT22;10812;51.838;5.838;2022-12-07T02:47:34;1.80;99.90
21306;DHT22;10812;51.838;5.838;2022-12-07T02:50:04;1.80;99.90
21306;DHT22;10812;51.838;5.838;2022-12-07T02:52:33;1.80;99.90
21306;DHT22;10812;51.838;5.838;2022-12-07T02:55:02;1.80;99.90
21306;DHT22;10812;51.838;5.838;2022-12-07T02:57:45;1.80;99.90
21306;DHT22;10812;51.838;5.838;2022-12-07T03:08:25;1.60;99.90
21306;DHT22;10812;51.838;5.838;2022-12-07T03:10:58;1.60;99.90
21306;DHT22;10812;51.838;5.838;2022-12-07T03:13:30;1.60;99.90
21306;DHT22;10812;51.838;5.838;2022-12-07T03:16:04;1.60;99.90
21306;DHT22;10812;51.838;5.838;2022-12-07T03:18:37;1.70;99.90
21306;DHT22;10812;51.838;5.838;2022-12-07T03:21:10;1.80;99.90
21306;DHT22;10812;51.838;5.838;2022-12-07T03:23:43;1.80;99.90
21306;DHT22;10812;51.838;5.838;2022-12-07T03:26:14;1.90;99.90
21306;DHT22;10812;51.838;5.838;2022-12-07T03:28:49;1.80;99.90
21306;DHT22;10812;51.838;5.838;2022-12-07T03:31:19;1.80;99.90
21306;DHT22;10812;51.838;5.838;2022-12-07T03:33:53;1.80;99.90
21306;DHT22;10812;51.838;5.838;2022-12-07T03:36:28;1.90;99.90
21306;DHT22;10812;51.838;5.838;2022-12-07T03:39:04;2.00;99.90
21306;DHT22;10812;51.838;5.838;2022-12-07T03:41:37;2.10;99.90
21306;DHT22;10812;51.838;5.838;2022-12-07T03:44:11;2.20;99.90
21306;DHT22;10812;51.838;5.838;2022-12-07T03:46:44;2.20;99.90
21306;DHT22;10812;51.838;5.838;2022-12-07T03:49:18;2.30;99.90
21306;DHT22;10812;51.838;5.838;2022-12-07T03:51:54;2.40;99.90
21306;DHT22;10812;51.838;5.838;2022-12-07T03:54:30;2.50;99.90
21306;DHT22;10812;51.838;5.838;2022-12-07T03:57:01;2.60;99.90
21306;DHT22;10812;51.838;5.838;2022-12-07T03:59:30;2.70;99.90
21306;DHT22;10812;51.838;5.838;2022-12-07T04:02:03;2.70;99.90
21306;DHT22;10812;51.838;5.838;2022-12-07T04:04:32;2.80;99.90
21306;DHT22;10812;51.838;5.838;2022-12-07T04:07:00;2.90;99.90
21306;DHT22;10812;51.838;5.838;2022-12-07T04:09:30;2.90;99.90
21306;DHT22;10812;51.838;5.838;2022-12-07T04:11:58;2.80;99.90
21306;DHT22;10812;51.838;5.838;2022-12-07T04:14:26;2.70;99.90
21306;DHT22;10812;51.838;5.838;2022-12-07T04:16:56;2.70;99.90
21306;DHT22;10812;51.838;5.838;2022-12-07T04:19:26;2.70;99.90
21306;DHT22;10812;51.838;5.838;2022-12-07T04:21:55;2.70;99.90
21306;DHT22;10812;51.838;5.838;2022-12-07T04:24:23;2.70;99.90
21306;DHT22;10812;51.838;5.838;2022-12-07T04:26:53;2.70;99.90
21306;DHT22;10812;51.838;5.838;2022-12-07T04:29:22;2.60;99.90
21306;DHT22;10812;51.838;5.838;2022-12-07T04:31:50;2.60;99.90
21306;DHT22;10812;51.838;5.838;2022-12-07T04:34:19;2.50;99.90
21306;DHT22;10812;51.838;5.838;2022-12-07T04:36:47;2.40;99.90
21306;DHT22;10812;51.838;5.838;2022-12-07T04:39:19;2.30;99.90
21306;DHT22;10812;51.838;5.838;2022-12-07T04:41:48;2.30;99.90
21306;DHT22;10812;51.838;5.838;2022-12-07T04:44:18;2.30;99.90
21306;DHT22;10812;51.838;5.838;2022-12-07T04:46:47;2.20;99.90
21306;DHT22;10812;51.838;5.838;2022-12-07T04:49:16;2.20;99.90
21306;DHT22;10812;51.838;5.838;2022-12-07T04:51:45;2.30;99.90
21306;DHT22;10812;51.838;5.838;2022-12-07T04:54:14;2.30;99.90
21306;DHT22;10812;51.838;5.838;2022-12-07T04:56:43;2.40;99.90
21306;DHT22;10812;51.838;5.838;2022-12-07T04:59:11;2.50;99.90
21306;DHT22;10812;51.838;5.838;2022-12-07T05:01:41;2.60;99.90
21306;DHT22;10812;51.838;5.838;2022-12-07T05:04:10;2.70;99.90
21306;DHT22;10812;51.838;5.838;2022-12-07T05:06:38;2.70;99.90
21306;DHT22;10812;51.838;5.838;2022-12-07T05:09:06;2.70;99.90
21306;DHT22;10812;51.838;5.838;2022-12-07T05:11:35;2.80;99.90
21306;DHT22;10812;51.838;5.838;2022-12-07T05:14:11;2.80;99.90
21306;DHT22;10812;51.838;5.838;2022-12-07T05:16:42;2.80;99.90
21306;DHT22;10812;51.838;5.838;2022-12-07T05:19:11;2.80;99.90
21306;DHT22;10812;51.838;5.838;2022-12-07T05:21:39;2.80;99.90
21306;DHT22;10812;51.838;5.838;2022-12-07T05:24:10;2.80;99.90
21306;DHT22;10812;51.838;5.838;2022-12-07T05:26:39;2.90;99.90
21306;DHT22;10812;51.838;5.838;2022-12-07T05:29:10;2.90;99.90
21306;DHT22;10812;51.838;5.838;2022-12-07T05:31:39;2.90;99.90
21306;DHT22;10812;51.838;5.838;2022-12-07T05:34:08;2.80;99.90
21306;DHT22;10812;51.838;5.838;2022-12-07T05:36:36;2.80;99.90
21306;DHT22;10812;51.838;5.838;2022-12-07T05:39:05;2.80;99.90
21306;DHT22;10812;51.838;5.838;2022-12-07T05:41:33;2.70;99.90
21306;DHT22;10812;51.838;5.838;2022-12-07T05:44:19;2.60;99.90
21306;DHT22;10812;51.838;5.838;2022-12-07T05:46:47;2.50;99.90
21306;DHT22;10812;51.838;5.838;2022-12-07T05:49:17;2.50;99.90
21306;DHT22;10812;51.838;5.838;2022-12-07T05:51:45;2.40;99.90
21306;DHT22;10812;51.838;5.838;2022-12-07T05:54:13;2.40;99.90
21306;DHT22;10812;51.838;5.838;2022-12-07T05:56:41;2.40;99.90
21306;DHT22;10812;51.838;5.838;2022-12-07T05:59:09;2.30;99.90
21306;DHT22;10812;51.838;5.838;2022-12-07T06:01:56;2.30;99.90
21306;DHT22;10812;51.838;5.838;2022-12-07T06:04:28;2.30;99.90
21306;DHT22;10812;51.838;5.838;2022-12-07T06:06:56;2.30;99.90
21306;DHT22;10812;51.838;5.838;2022-12-07T06:09:26;2.30;99.90
21306;DHT22;10812;51.838;5.838;2022-12-07T06:11:54;2.20;99.90
21306;DHT22;10812;51.838;5.838;2022-12-07T06:14:40;2.20;99.90
21306;DHT22;10812;51.838;5.838;2022-12-07T06:17:08;2.20;99.90
21306;DHT22;10812;51.838;5.838;2022-12-07T06:19:37;2.20;99.90
21306;DHT22;10812;51.838;5.838;2022-12-07T06:22:06;2.10;99.90
21306;DHT22;10812;51.838;5.838;2022-12-07T06:24:35;2.10;99.90
21306;DHT22;10812;51.838;5.838;2022-12-07T06:27:04;2.00;99.90
21306;DHT22;10812;51.838;5.838;2022-12-07T06:29:32;1.90;99.90
21306;DHT22;10812;51.838;5.838;2022-12-07T06:32:00;2.00;99.90
21306;DHT22;10812;51.838;5.838;2022-12-07T06:45:20;2.60;99.90
21306;DHT22;10812;51.838;5.838;2022-12-07T06:47:48;2.70;99.90
21306;DHT22;10812;51.838;5.838;2022-12-07T06:50:17;2.70;99.90
21306;DHT22;10812;51.838;5.838;2022-12-07T06:52:45;2.60;99.90
21306;DHT22;10812;51.838;5.838;2022-12-07T06:55:13;2.50;99.90
21306;DHT22;10812;51.838;5.838;2022-12-07T06:57:41;2.50;99.90
21306;DHT22;10812;51.838;5.838;2022-12-07T07:00:10;2.50;99.90
21306;DHT22;10812;51.838;5.838;2022-12-07T07:02:48;2.40;99.90
21306;DHT22;10812;51.838;5.838;2022-12-07T07:05:16;2.50;99.90
21306;DHT22;10812;51.838;5.838;2022-12-07T07:07:44;2.50;99.90
21306;DHT22;10812;51.838;5.838;2022-12-07T07:10:33;2.60;99.90
21306;DHT22;10812;51.838;5.838;2022-12-07T07:13:02;2.70;99.90
21306;DHT22;10812;51.838;5.838;2022-12-07T07:15:30;2.80;99.90
21306;DHT22;10812;51.838;5.838;2022-12-07T07:18:00;2.80;99.90
21306;DHT22;10812;51.838;5.838;2022-12-07T07:20:34;2.80;99.90
21306;DHT22;10812;51.838;5.838;2022-12-07T07:23:02;2.70;99.90
21306;DHT22;10812;51.838;5.838;2022-12-07T07:25:31;2.60;99.90
21306;DHT22;10812;51.838;5.838;2022-12-07T07:28:00;2.50;99.90
21306;DHT22;10812;51.838;5.838;2022-12-07T07:30:28;2.50;99.90
21306;DHT22;10812;51.838;5.838;2022-12-07T07:32:56;2.50;99.90
21306;DHT22;10812;51.838;5.838;2022-12-07T07:35:26;2.50;99.90
21306;DHT22;10812;51.838;5.838;2022-12-07T07:37:55;2.50;99.90
21306;DHT22;10812;51.838;5.838;2022-12-07T07:40:23;2.50;99.90
21306;DHT22;10812;51.838;5.838;2022-12-07T07:42:53;2.50;99.90
21306;DHT22;10812;51.838;5.838;2022-12-07T07:45:22;2.50;99.90
21306;DHT22;10812;51.838;5.838;2022-12-07T07:47:51;2.60;99.90
21306;DHT22;10812;51.838;5.838;2022-12-07T07:50:20;2.70;99.90
21306;DHT22;10812;51.838;5.838;2022-12-07T07:52:49;2.70;99.90
21306;DHT22;10812;51.838;5.838;2022-12-07T07:55:18;2.70;99.90
21306;DHT22;10812;51.838;5.838;2022-12-07T07:57:46;2.70;99.90
21306;DHT22;10812;51.838;5.838;2022-12-07T08:00:21;2.60;99.90
21306;DHT22;10812;51.838;5.838;2022-12-07T08:02:49;2.70;99.90
21306;DHT22;10812;51.838;5.838;2022-12-07T08:05:17;2.60;99.90
21306;DHT22;10812;51.838;5.838;2022-12-07T08:07:45;2.60;99.90
21306;DHT22;10812;51.838;5.838;2022-12-07T08:10:15;2.50;99.90
21306;DHT22;10812;51.838;5.838;2022-12-07T08:12:43;2.50;99.90
21306;DHT22;10812;51.838;5.838;2022-12-07T08:15:29;2.50;99.90
21306;DHT22;10812;51.838;5.838;2022-12-07T08:17:58;2.50;99.90
21306;DHT22;10812;51.838;5.838;2022-12-07T08:20:29;2.50;99.90
21306;DHT22;10812;51.838;5.838;2022-12-07T08:22:57;2.50;99.90
21306;DHT22;10812;51.838;5.838;2022-12-07T08:25:27;2.50;99.90
21306;DHT22;10812;51.838;5.838;2022-12-07T08:27:55;2.60;99.90
21306;DHT22;10812;51.838;5.838;2022-12-07T08:30:23;2.60;99.90
21306;DHT22;10812;51.838;5.838;2022-12-07T08:32:54;2.70;99.90
21306;DHT22;10812;51.838;5.838;2022-12-07T08:35:22;2.90;99.90
21306;DHT22;10812;51.838;5.838;2022-12-07T08:37:50;3.50;99.90
21306;DHT22;10812;51.838;5.838;2022-12-07T08:40:18;4.20;99.90
21306;DHT22;10812;51.838;5.838;2022-12-07T08:42:52;4.80;99.90
21306;DHT22;10812;51.838;5.838;2022-12-07T08:45:21;5.00;99.90
21306;DHT22;10812;51.838;5.838;2022-12-07T08:47:56;5.40;99.90
21306;DHT22;10812;51.838;5.838;2022-12-07T08:50:28;5.30;99.90
21306;DHT22;10812;51.838;5.838;2022-12-07T08:52:58;5.10;99.90
21306;DHT22;10812;51.838;5.838;2022-12-07T08:55:27;4.80;99.90
21306;DHT22;10812;51.838;5.838;2022-12-07T08:57:59;4.80;99.90
21306;DHT22;10812;51.838;5.838;2022-12-07T09:00:27;4.50;99.90
21306;DHT22;10812;51.838;5.838;2022-12-07T09:02:55;4.40;99.90
21306;DHT22;10812;51.838;5.838;2022-12-07T09:05:24;4.30;99.90
21306;DHT22;10812;51.838;5.838;2022-12-07T09:07:56;4.20;99.90
21306;DHT22;10812;51.838;5.838;2022-12-07T09:10:25;4.10;99.90
21306;DHT22;10812;51.838;5.838;2022-12-07T09:12:53;4.20;99.90
21306;DHT22;10812;51.838;5.838;2022-12-07T09:15:23;4.30;99.90
21306;DHT22;10812;51.838;5.838;2022-12-07T09:17:51;4.40;99.90
21306;DHT22;10812;51.838;5.838;2022-12-07T09:20:19;4.60;99.90
21306;DHT22;10812;51.838;5.838;2022-12-07T09:22:53;4.80;99.90
21306;DHT22;10812;51.838;5.838;2022-12-07T09:25:22;4.70;99.90
21306;DHT22;10812;51.838;5.838;2022-12-07T09:27:55;4.80;99.90
21306;DHT22;10812;51.838;5.838;2022-12-07T09:30:26;4.90;99.90
21306;DHT22;10812;51.838;5.838;2022-12-07T09:32:55;5.00;99.90
21306;DHT22;10812;51.838;5.838;2022-12-07T09:35:24;4.90;99.90
21306;DHT22;10812;51.838;5.838;2022-12-07T09:37:53;4.90;99.90
21306;DHT22;10812;51.838;5.838;2022-12-07T09:40:22;4.80;99.90
21306;DHT22;10812;51.838;5.838;2022-12-07T09:42:52;4.70;99.90
21306;DHT22;10812;51.838;5.838;2022-12-07T09:45:24;4.70;99.90
21306;DHT22;10812;51.838;5.838;2022-12-07T09:47:53;4.70;99.90
21306;DHT22;10812;51.838;5.838;2022-12-07T09:50:25;4.80;99.90
21306;DHT22;10812;51.838;5.838;2022-12-07T09:53:02;4.80;99.90
21306;DHT22;10812;51.838;5.838;2022-12-07T09:55:31;4.80;99.90
21306;DHT22;10812;51.838;5.838;2022-12-07T09:57:59;4.90;99.90
21306;DHT22;10812;51.838;5.838;2022-12-07T10:00:29;4.90;99.90
21306;DHT22;10812;51.838;5.838;2022-12-07T10:02:59;4.90;99.90
21306;DHT22;10812;51.838;5.838;2022-12-07T10:05:30;4.90;99.90
21306;DHT22;10812;51.838;5.838;2022-12-07T10:07:58;4.90;99.90
21306;DHT22;10812;51.838;5.838;2022-12-07T10:10:30;5.00;99.90
21306;DHT22;10812;51.838;5.838;2022-12-07T10:13:05;5.20;99.90
21306;DHT22;10812;51.838;5.838;2022-12-07T10:15:46;5.20;99.90
21306;DHT22;10812;51.838;5.838;2022-12-07T10:18:25;5.40;99.90
21306;DHT22;10812;51.838;5.838;2022-12-07T10:21:08;5.40;99.90
21306;DHT22;10812;51.838;5.838;2022-12-07T10:23:39;5.40;99.90
21306;DHT22;10812;51.838;5.838;2022-12-07T10:26:26;5.50;99.90
21306;DHT22;10812;51.838;5.838;2022-12-07T10:28:56;5.60;99.90
21306;DHT22;10812;51.838;5.838;2022-12-07T10:31:26;5.70;99.90
21306;DHT22;10812;51.838;5.838;2022-12-07T10:33:58;5.70;99.90
21306;DHT22;10812;51.838;5.838;2022-12-07T10:36:29;5.70;99.90
21306;DHT22;10812;51.838;5.838;2022-12-07T10:39:04;5.90;99.90
21306;DHT22;10812;51.838;5.838;2022-12-07T10:41:53;5.90;99.90
21306;DHT22;10812;51.838;5.838;2022-12-07T10:44:23;5.90;99.90
21306;DHT22;10812;51.838;5.838;2022-12-07T10:47:12;6.00;99.90
21306;DHT22;10812;51.838;5.838;2022-12-07T11:05:16;5.60;99.90
21306;DHT22;10812;51.838;5.838;2022-12-07T11:07:51;5.60;99.90
21306;DHT22;10812;51.838;5.838;2022-12-07T11:10:25;5.80;99.90
21306;DHT22;10812;51.838;5.838;2022-12-07T11:16:15;5.90;99.90
21306;DHT22;10812;51.838;5.838;2022-12-07T11:18:51;6.00;99.90
21306;DHT22;10812;51.838;5.838;2022-12-07T11:21:30;6.00;99.90
21306;DHT22;10812;51.838;5.838;2022-12-07T11:24:03;6.10;99.90
21306;DHT22;10812;51.838;5.838;2022-12-07T11:26:42;6.20;99.90
21306;DHT22;10812;51.838;5.838;2022-12-07T11:29:32;6.20;99.90
21306;DHT22;10812;51.838;5.838;2022-12-07T11:32:14;6.20;99.90
21306;DHT22;10812;51.838;5.838;2022-12-07T11:34:54;6.20;99.90
21306;DHT22;10812;51.838;5.838;2022-12-07T11:37:32;6.20;99.90
21306;DHT22;10812;51.838;5.838;2022-12-07T11:40:14;6.20;99.90
21306;DHT22;10812;51.838;5.838;2022-12-07T11:42:49;6.10;99.90
21306;DHT22;10812;51.838;5.838;2022-12-07T11:45:22;6.00;99.90
21306;DHT22;10812;51.838;5.838;2022-12-07T11:47:55;5.90;99.90
21306;DHT22;10812;51.838;5.838;2022-12-07T11:50:29;5.80;99.90
21306;DHT22;10812;51.838;5.838;2022-12-07T11:53:03;5.80;99.90
21306;DHT22;10812;51.838;5.838;2022-12-07T11:55:43;5.80;99.90
21306;DHT22;10812;51.838;5.838;2022-12-07T11:58:27;5.90;99.90
21306;DHT22;10812;51.838;5.838;2022-12-07T12:01:13;6.10;99.90
21306;DHT22;10812;51.838;5.838;2022-12-07T12:03:44;6.20;99.90
21306;DHT22;10812;51.838;5.838;2022-12-07T12:06:19;6.20;99.90
21306;DHT22;10812;51.838;5.838;2022-12-07T12:08:54;6.30;99.90
21306;DHT22;10812;51.838;5.838;2022-12-07T12:12:02;6.40;99.90
21306;DHT22;10812;51.838;5.838;2022-12-07T12:15:03;6.50;99.90
21306;DHT22;10812;51.838;5.838;2022-12-07T12:20:39;6.60;99.90
21306;DHT22;10812;51.838;5.838;2022-12-07T12:23:13;6.70;99.90
21306;DHT22;10812;51.838;5.838;2022-12-07T12:25:46;6.80;99.90
21306;DHT22;10812;51.838;5.838;2022-12-07T12:28:23;6.90;99.90
21306;DHT22;10812;51.838;5.838;2022-12-07T12:31:10;6.90;99.90
21306;DHT22;10812;51.838;5.838;2022-12-07T12:33:44;6.90;99.90
21306;DHT22;10812;51.838;5.838;2022-12-07T12:36:21;6.90;99.90
21306;DHT22;10812;51.838;5.838;2022-12-07T12:38:51;6.70;99.90
21306;DHT22;10812;51.838;5.838;2022-12-07T12:41:58;6.60;99.90
21306;DHT22;10812;51.838;5.838;2022-12-07T12:47:54;6.60;99.90
21306;DHT22;10812;51.838;5.838;2022-12-07T12:50:25;6.60;99.90
21306;DHT22;10812;51.838;5.838;2022-12-07T12:56:10;6.80;99.90
21306;DHT22;10812;51.838;5.838;2022-12-07T12:58:46;6.90;99.90
21306;DHT22;10812;51.838;5.838;2022-12-07T13:01:40;6.90;99.90
21306;DHT22;10812;51.838;5.838;2022-12-07T13:04:18;6.90;99.90
21306;DHT22;10812;51.838;5.838;2022-12-07T13:06:49;6.70;99.90
21306;DHT22;10812;51.838;5.838;2022-12-07T13:09:20;6.70;99.90
21306;DHT22;10812;51.838;5.838;2022-12-07T13:12:00;6.60;99.90
21306;DHT22;10812;51.838;5.838;2022-12-07T13:14:54;6.40;99.90
21306;DHT22;10812;51.838;5.838;2022-12-07T13:18:03;6.20;99.90
21306;DHT22;10812;51.838;5.838;2022-12-07T13:20:52;6.10;99.90
21306;DHT22;10812;51.838;5.838;2022-12-07T13:23:32;6.00;99.90
21306;DHT22;10812;51.838;5.838;2022-12-07T13:26:15;6.00;99.90
21306;DHT22;10812;51.838;5.838;2022-12-07T13:28:46;5.90;99.90
21306;DHT22;10812;51.838;5.838;2022-12-07T13:31:32;5.90;99.90
21306;DHT22;10812;51.838;5.838;2022-12-07T13:34:01;5.90;99.90
21306;DHT22;10812;51.838;5.838;2022-12-07T13:36:32;5.80;99.90
21306;DHT22;10812;51.838;5.838;2022-12-07T13:39:17;5.80;99.90
21306;DHT22;10812;51.838;5.838;2022-12-07T13:41:49;5.70;99.90
21306;DHT22;10812;51.838;5.838;2022-12-07T13:44:19;5.70;99.90
21306;DHT22;10812;51.838;5.838;2022-12-07T13:46:55;5.70;99.90
21306;DHT22;10812;51.838;5.838;2022-12-07T13:49:27;5.80;99.90
21306;DHT22;10812;51.838;5.838;2022-12-07T13:52:13;5.70;99.90
21306;DHT22;10812;51.838;5.838;2022-12-07T13:54:47;5.70;99.90
21306;DHT22;10812;51.838;5.838;2022-12-07T13:57:15;5.60;99.90
21306;DHT22;10812;51.838;5.838;2022-12-07T13:59:43;5.60;99.90
21306;DHT22;10812;51.838;5.838;2022-12-07T14:02:20;5.50;99.90
21306;DHT22;10812;51.838;5.838;2022-12-07T14:04:50;5.50;99.90
21306;DHT22;10812;51.838;5.838;2022-12-07T14:07:21;5.40;99.90
21306;DHT22;10812;51.838;5.838;2022-12-07T14:09:57;5.30;99.90
21306;DHT22;10812;51.838;5.838;2022-12-07T14:12:26;5.20;99.90
21306;DHT22;10812;51.838;5.838;2022-12-07T14:14:56;5.20;99.90
21306;DHT22;10812;51.838;5.838;2022-12-07T14:17:27;5.20;99.90
21306;DHT22;10812;51.838;5.838;2022-12-07T14:19:56;5.30;99.90
21306;DHT22;10812;51.838;5.838;2022-12-07T14:22:28;5.40;99.90
21306;DHT22;10812;51.838;5.838;2022-12-07T14:25:17;5.40;99.90
21306;DHT22;10812;51.838;5.838;2022-12-07T14:27:52;5.40;99.90
21306;DHT22;10812;51.838;5.838;2022-12-07T14:30:24;5.50;99.90
21306;DHT22;10812;51.838;5.838;2022-12-07T14:32:57;5.50;99.90
21306;DHT22;10812;51.838;5.838;2022-12-07T14:35:26;5.60;99.90
21306;DHT22;10812;51.838;5.838;2022-12-07T14:37:55;5.60;99.90
21306;DHT22;10812;51.838;5.838;2022-12-07T14:40:25;5.70;99.90
21306;DHT22;10812;51.838;5.838;2022-12-07T14:42:57;5.80;99.90
21306;DHT22;10812;51.838;5.838;2022-12-07T14:45:26;5.80;99.90
21306;DHT22;10812;51.838;5.838;2022-12-07T14:47:55;5.80;99.90
21306;DHT22;10812;51.838;5.838;2022-12-07T14:50:48;5.80;99.90
21306;DHT22;10812;51.838;5.838;2022-12-07T14:53:41;5.70;99.90
21306;DHT22;10812;51.838;5.838;2022-12-07T14:56:14;5.70;99.90
21306;DHT22;10812;51.838;5.838;2022-12-07T14:58:42;5.70;99.90
21306;DHT22;10812;51.838;5.838;2022-12-07T15:01:10;5.70;99.90
21306;DHT22;10812;51.838;5.838;2022-12-07T15:03:39;5.60;99.90
21306;DHT22;10812;51.838;5.838;2022-12-07T15:06:13;5.60;99.90
21306;DHT22;10812;51.838;5.838;2022-12-07T15:08:42;5.60;99.90
21306;DHT22;10812;51.838;5.838;2022-12-07T15:11:12;5.40;99.90
21306;DHT22;10812;51.838;5.838;2022-12-07T15:13:41;5.40;99.90
21306;DHT22;10812;51.838;5.838;2022-12-07T15:16:23;5.30;99.90
21306;DHT22;10812;51.838;5.838;2022-12-07T15:18:52;5.20;99.90
21306;DHT22;10812;51.838;5.838;2022-12-07T15:21:41;5.20;99.90
21306;DHT22;10812;51.838;5.838;2022-12-07T15:24:10;5.20;99.90
21306;DHT22;10812;51.838;5.838;2022-12-07T15:26:39;5.10;99.90
21306;DHT22;10812;51.838;5.838;2022-12-07T15:29:08;5.10;99.90
21306;DHT22;10812;51.838;5.838;2022-12-07T15:31:37;5.00;99.90
21306;DHT22;10812;51.838;5.838;2022-12-07T15:34:23;5.10;99.90
21306;DHT22;10812;51.838;5.838;2022-12-07T15:36:53;5.10;99.90
21306;DHT22;10812;51.838;5.838;2022-12-07T15:39:21;5.10;99.90
21306;DHT22;10812;51.838;5.838;2022-12-07T15:41:49;5.10;99.90
21306;DHT22;10812;51.838;5.838;2022-12-07T15:44:17;5.10;99.90
21306;DHT22;10812;51.838;5.838;2022-12-07T15:47:04;5.00;99.90
21306;DHT22;10812;51.838;5.838;2022-12-07T15:49:33;5.00;99.90
21306;DHT22;10812;51.838;5.838;2022-12-07T15:52:01;4.90;99.90
21306;DHT22;10812;51.838;5.838;2022-12-07T15:54:30;4.90;99.90
21306;DHT22;10812;51.838;5.838;2022-12-07T15:56:59;4.90;99.90
21306;DHT22;10812;51.838;5.838;2022-12-07T15:59:28;4.80;99.90
21306;DHT22;10812;51.838;5.838;2022-12-07T16:01:56;4.80;99.90
21306;DHT22;10812;51.838;5.838;2022-12-07T16:04:26;4.70;99.90
21306;DHT22;10812;51.838;5.838;2022-12-07T16:06:55;4.70;99.90
21306;DHT22;10812;51.838;5.838;2022-12-07T16:09:24;4.70;99.90
21306;DHT22;10812;51.838;5.838;2022-12-07T16:11:52;4.70;99.90
21306;DHT22;10812;51.838;5.838;2022-12-07T16:14:20;4.60;99.90
21306;DHT22;10812;51.838;5.838;2022-12-07T16:16:49;4.50;99.90
21306;DHT22;10812;51.838;5.838;2022-12-07T16:19:17;4.50;99.90
21306;DHT22;10812;51.838;5.838;2022-12-07T16:21:45;4.40;99.90
21306;DHT22;10812;51.838;5.838;2022-12-07T16:24:14;4.30;99.90
21306;DHT22;10812;51.838;5.838;2022-12-07T16:26:43;4.30;99.90
21306;DHT22;10812;51.838;5.838;2022-12-07T16:29:17;4.30;99.90
21306;DHT22;10812;51.838;5.838;2022-12-07T16:31:45;4.30;99.90
21306;DHT22;10812;51.838;5.838;2022-12-07T16:34:14;4.40;99.90
21306;DHT22;10812;51.838;5.838;2022-12-07T16:36:42;4.40;99.90
21306;DHT22;10812;51.838;5.838;2022-12-07T16:39:32;4.40;99.90
21306;DHT22;10812;51.838;5.838;2022-12-07T16:42:01;4.40;99.90
21306;DHT22;10812;51.838;5.838;2022-12-07T16:44:29;4.40;99.90
21306;DHT22;10812;51.838;5.838;2022-12-07T16:46:58;4.40;99.90
21306;DHT22;10812;51.838;5.838;2022-12-07T16:49:28;4.40;99.90
21306;DHT22;10812;51.838;5.838;2022-12-07T16:51:56;4.40;99.90
21306;DHT22;10812;51.838;5.838;2022-12-07T16:54:45;4.30;99.90
21306;DHT22;10812;51.838;5.838;2022-12-07T16:57:13;4.30;99.90
21306;DHT22;10812;51.838;5.838;2022-12-07T16:59:49;4.40;99.90
21306;DHT22;10812;51.838;5.838;2022-12-07T17:02:17;4.30;99.90
21306;DHT22;10812;51.838;5.838;2022-12-07T17:04:45;4.30;99.90
21306;DHT22;10812;51.838;5.838;2022-12-07T17:07:13;4.30;99.90
21306;DHT22;10812;51.838;5.838;2022-12-07T17:09:41;4.30;99.90
21306;DHT22;10812;51.838;5.838;2022-12-07T17:12:11;4.30;99.90
21306;DHT22;10812;51.838;5.838;2022-12-07T17:14:42;4.30;99.90
21306;DHT22;10812;51.838;5.838;2022-12-07T17:17:28;4.30;99.90
21306;DHT22;10812;51.838;5.838;2022-12-07T17:19:57;4.20;99.90